sensor_id;sensor_type;location;lat;lon;timestamp;pressure;altitude;pressure_sealevel;temperature;humidity
71361;BME280;59166;48.908;1.870;2024-01-07T00:03:22;100470.25;;;3.90;100.00
71361;BME280;59166;48.908;1.870;2024-01-07T00:08:23;100469.63;;;3.88;100.00
71361;BME280;59166;48.908;1.870;2024-01-07T00:13:23;100478.88;;;3.92;100.00
71361;BME280;59166;48.908;1.870;2024-01-07T00:18:26;100478.28;;;3.90;100.00
71361;BME280;59166;48.908;1.870;2024-01-07T00:23:26;100485.00;;;3.99;100.00
71361;BME280;59166;48.908;1.870;2024-01-07T00:28:27;100484.03;;;3.94;100.00
71361;BME280;59166;48.908;1.870;2024-01-07T00:33:30;100484.63;;;3.96;100.00
71361;BME280;59166;48.908;1.870;2024-01-07T00:38:32;100490.84;;;3.83;100.00
71361;BME280;59166;48.908;1.870;2024-01-07T00:43:32;100485.53;;;3.77;100.00
71361;BME280;59166;48.908;1.870;2024-01-07T00:48:34;100488.59;;;3.80;100.00
71361;BME280;59166;48.908;1.870;2024-01-07T00:53:35;100477.09;;;3.80;100.00
71361;BME280;59166;48.908;1.870;2024-01-07T00:58:36;100492.13;;;3.74;100.00
71361;BME280;59166;48.908;1.870;2024-01-07T01:03:38;100488.63;;;3.74;100.00
71361;BME280;59166;48.908;1.870;2024-01-07T01:08:39;100488.63;;;3.74;100.00
71361;BME280;59166;48.908;1.870;2024-01-07T01:13:40;100499.31;;;3.74;100.00
71361;BME280;59166;48.908;1.870;2024-01-07T01:18:42;100498.91;;;3.70;100.00
71361;BME280;59166;48.908;1.870;2024-01-07T01:23:46;100500.75;;;3.69;100.00
71361;BME280;59166;48.908;1.870;2024-01-07T01:28:46;100507.75;;;3.71;100.00
71361;BME280;59166;48.908;1.870;2024-01-07T01:33:48;100507.91;;;3.76;100.00
71361;BME280;59166;48.908;1.870;2024-01-07T01:38:49;100508.38;;;3.66;100.00
71361;BME280;59166;48.908;1.870;2024-01-07T01:43:49;100518.47;;;3.64;100.00
71361;BME280;59166;48.908;1.870;2024-01-07T01:48:51;100515.38;;;3.67;100.00
71361;BME280;59166;48.908;1.870;2024-01-07T01:53:54;100525.25;;;3.60;100.00
71361;BME280;59166;48.908;1.870;2024-01-07T01:58:55;100525.25;;;3.60;100.00
71361;BME280;59166;48.908;1.870;2024-01-07T02:03:57;100531.22;;;3.49;100.00
71361;BME280;59166;48.908;1.870;2024-01-07T02:08:58;100538.41;;;3.42;100.00
71361;BME280;59166;48.908;1.870;2024-01-07T02:13:58;100541.09;;;3.35;100.00
71361;BME280;59166;48.908;1.870;2024-01-07T02:19:00;100541.31;;;3.34;100.00
71361;BME280;59166;48.908;1.870;2024-01-07T02:24:05;100537.59;;;3.35;100.00
71361;BME280;59166;48.908;1.870;2024-01-07T02:29:05;100544.00;;;3.34;100.00
71361;BME280;59166;48.908;1.870;2024-01-07T02:34:06;100541.69;;;3.37;100.00
71361;BME280;59166;48.908;1.870;2024-01-07T02:39:08;100541.69;;;3.37;100.00
71361;BME280;59166;48.908;1.870;2024-01-07T02:44:08;100539.06;;;3.24;100.00
71361;BME280;59166;48.908;1.870;2024-01-07T02:49:09;100535.97;;;3.21;100.00
71361;BME280;59166;48.908;1.870;2024-01-07T02:54:11;100543.16;;;3.13;100.00
71361;BME280;59166;48.908;1.870;2024-01-07T02:59:12;100545.03;;;3.06;100.00
71361;BME280;59166;48.908;1.870;2024-01-07T03:04:15;100539.69;;;3.00;100.00
71361;BME280;59166;48.908;1.870;2024-01-07T03:09:17;100543.78;;;2.96;100.00
71361;BME280;59166;48.908;1.870;2024-01-07T03:14:18;100552.41;;;2.85;100.00
71361;BME280;59166;48.908;1.870;2024-01-07T03:19:19;100552.41;;;2.78;100.00
71361;BME280;59166;48.908;1.870;2024-01-07T03:24:20;100552.81;;;2.82;100.00
71361;BME280;59166;48.908;1.870;2024-01-07T03:29:21;100554.88;;;2.80;100.00
71361;BME280;59166;48.908;1.870;2024-01-07T03:34:22;100549.31;;;2.81;100.00
71361;BME280;59166;48.908;1.870;2024-01-07T03:39:24;100558.97;;;2.95;100.00
71361;BME280;59166;48.908;1.870;2024-01-07T03:44:24;100571.31;;;2.90;100.00
71361;BME280;59166;48.908;1.870;2024-01-07T03:49:25;100571.09;;;3.04;100.00
71361;BME280;59166;48.908;1.870;2024-01-07T03:54:27;100575.00;;;3.08;100.00
71361;BME280;59166;48.908;1.870;2024-01-07T03:59:27;100563.91;;;3.11;100.00
71361;BME280;59166;48.908;1.870;2024-01-07T04:04:28;100578.28;;;3.10;100.00
71361;BME280;59166;48.908;1.870;2024-01-07T04:09:30;100577.25;;;2.98;100.00
71361;BME280;59166;48.908;1.870;2024-01-07T04:14:30;100569.00;;;2.87;100.00
71361;BME280;59166;48.908;1.870;2024-01-07T04:19:31;100580.50;;;2.74;100.00
71361;BME280;59166;48.908;1.870;2024-01-07T04:24:33;100575.38;;;2.73;100.00
71361;BME280;59166;48.908;1.870;2024-01-07T04:29:33;100570.66;;;2.75;100.00
71361;BME280;59166;48.908;1.870;2024-01-07T04:34:34;100574.16;;;2.82;100.00
71361;BME280;59166;48.908;1.870;2024-01-07T04:39:36;100584.00;;;2.94;100.00
71361;BME280;59166;48.908;1.870;2024-01-07T04:44:36;100577.03;;;2.93;100.00
71361;BME280;59166;48.908;1.870;2024-01-07T04:49:38;100581.34;;;3.01;100.00
71361;BME280;59166;48.908;1.870;2024-01-07T04:54:40;100585.66;;;3.08;100.00
71361;BME280;59166;48.908;1.870;2024-01-07T04:59:41;100586.28;;;3.10;100.00
71361;BME280;59166;48.908;1.870;2024-01-07T05:04:41;100587.94;;;3.11;100.00
71361;BME280;59166;48.908;1.870;2024-01-07T05:09:43;100578.06;;;3.12;100.00
71361;BME280;59166;48.908;1.870;2024-01-07T05:14:44;100588.53;;;3.13;100.00
71361;BME280;59166;48.908;1.870;2024-01-07T05:19:44;100588.53;;;3.13;100.00
71361;BME280;59166;48.908;1.870;2024-01-07T05:24:46;100587.31;;;3.09;100.00
71361;BME280;59166;48.908;1.870;2024-01-07T05:29:47;100601.06;;;3.00;100.00
71361;BME280;59166;48.908;1.870;2024-01-07T05:34:48;100594.50;;;3.02;100.00
71361;BME280;59166;48.908;1.870;2024-01-07T05:39:50;100604.75;;;3.05;100.00
71361;BME280;59166;48.908;1.870;2024-01-07T05:44:50;100604.75;;;3.12;100.00
71361;BME280;59166;48.908;1.870;2024-01-07T05:49:51;100615.84;;;3.15;100.00
71361;BME280;59166;48.908;1.870;2024-01-07T05:54:53;100620.38;;;3.22;100.00
71361;BME280;59166;48.908;1.870;2024-01-07T05:59:54;100618.13;;;3.18;100.00
71361;BME280;59166;48.908;1.870;2024-01-07T06:04:54;100633.31;;;3.25;100.00
71361;BME280;59166;48.908;1.870;2024-01-07T06:09:56;100634.53;;;3.29;100.00
71361;BME280;59166;48.908;1.870;2024-01-07T06:14:57;100644.41;;;3.35;100.00
71361;BME280;59166;48.908;1.870;2024-01-07T06:19:57;100647.47;;;3.32;100.00
71361;BME280;59166;48.908;1.870;2024-01-07T06:24:59;100652.22;;;3.36;100.00
71361;BME280;59166;48.908;1.870;2024-01-07T06:30:00;100642.97;;;3.39;100.00
71361;BME280;59166;48.908;1.870;2024-01-07T06:35:01;100650.97;;;3.39;100.00
71361;BME280;59166;48.908;1.870;2024-01-07T06:40:04;100661.88;;;3.44;100.00
71361;BME280;59166;48.908;1.870;2024-01-07T06:45:05;100664.56;;;3.44;100.00
71361;BME280;59166;48.908;1.870;2024-01-07T06:50:07;100665.34;;;3.51;100.00
71361;BME280;59166;48.908;1.870;2024-01-07T06:55:09;100671.50;;;3.58;100.00
71361;BME280;59166;48.908;1.870;2024-01-07T07:00:10;100671.09;;;3.48;100.00
71361;BME280;59166;48.908;1.870;2024-01-07T07:05:11;100675.25;;;3.57;100.00
71361;BME280;59166;48.908;1.870;2024-01-07T07:10:13;100683.44;;;3.55;100.00
71361;BME280;59166;48.908;1.870;2024-01-07T07:15:14;100685.91;;;3.50;100.00
71361;BME280;59166;48.908;1.870;2024-01-07T07:20:14;100682.84;;;3.53;100.00
71361;BME280;59166;48.908;1.870;2024-01-07T07:25:16;100683.66;;;3.54;100.00
71361;BME280;59166;48.908;1.870;2024-01-07T07:30:18;100677.28;;;3.55;100.00
71361;BME280;59166;48.908;1.870;2024-01-07T07:35:18;100677.09;;;3.50;100.00
71361;BME280;59166;48.908;1.870;2024-01-07T07:40:21;100686.53;;;3.46;100.00
71361;BME280;59166;48.908;1.870;2024-01-07T07:45:21;100698.63;;;3.48;100.00
71361;BME280;59166;48.908;1.870;2024-01-07T07:50:22;100705.63;;;3.49;100.00
71361;BME280;59166;48.908;1.870;2024-01-07T07:55:24;100712.00;;;3.48;100.00
71361;BME280;59166;48.908;1.870;2024-01-07T08:00:24;100710.16;;;3.42;100.00
71361;BME280;59166;48.908;1.870;2024-01-07T08:05:25;100728.84;;;3.49;100.00
71361;BME280;59166;48.908;1.870;2024-01-07T08:10:27;100720.41;;;3.52;100.00
71361;BME280;59166;48.908;1.870;2024-01-07T08:15:27;100718.16;;;3.49;100.00
71361;BME280;59166;48.908;1.870;2024-01-07T08:20:28;100721.03;;;3.47;100.00
71361;BME280;59166;48.908;1.870;2024-01-07T08:25:30;100719.59;;;3.58;100.00
71361;BME280;59166;48.908;1.870;2024-01-07T08:30:31;100727.00;;;3.62;100.00
71361;BME280;59166;48.908;1.870;2024-01-07T08:35:31;100729.91;;;3.67;100.00
71361;BME280;59166;48.908;1.870;2024-01-07T08:40:33;100729.50;;;3.71;100.00
71361;BME280;59166;48.908;1.870;2024-01-07T08:45:34;100732.56;;;3.74;100.00
71361;BME280;59166;48.908;1.870;2024-01-07T08:50:35;100731.94;;;3.92;100.00
71361;BME280;59166;48.908;1.870;2024-01-07T08:55:37;100728.66;;;3.83;100.00
71361;BME280;59166;48.908;1.870;2024-01-07T09:00:37;100740.59;;;3.87;100.00
71361;BME280;59166;48.908;1.870;2024-01-07T09:05:38;100747.16;;;3.98;100.00
71361;BME280;59166;48.908;1.870;2024-01-07T09:10:41;100745.69;;;3.95;100.00
71361;BME280;59166;48.908;1.870;2024-01-07T09:15:41;100754.34;;;3.97;100.00
71361;BME280;59166;48.908;1.870;2024-01-07T09:20:42;100754.97;;;3.93;100.00
71361;BME280;59166;48.908;1.870;2024-01-07T09:25:44;100759.06;;;3.95;100.00
71361;BME280;59166;48.908;1.870;2024-01-07T09:30:45;100766.06;;;3.90;100.00
71361;BME280;59166;48.908;1.870;2024-01-07T09:35:46;100774.28;;;3.88;100.00
71361;BME280;59166;48.908;1.870;2024-01-07T09:40:48;100771.00;;;3.99;100.00
71361;BME280;59166;48.908;1.870;2024-01-07T09:45:49;100774.50;;;4.00;100.00
71361;BME280;59166;48.908;1.870;2024-01-07T09:50:52;100781.28;;;4.02;100.00
71361;BME280;59166;48.908;1.870;2024-01-07T09:55:57;100779.63;;;4.01;100.00
71361;BME280;59166;48.908;1.870;2024-01-07T10:01:01;100794.63;;;3.96;100.00
71361;BME280;59166;48.908;1.870;2024-01-07T10:06:03;100787.44;;;4.03;100.00
71361;BME280;59166;48.908;1.870;2024-01-07T10:11:05;100802.06;;;4.00;100.00
71361;BME280;59166;48.908;1.870;2024-01-07T10:16:07;100799.97;;;4.02;100.00
71361;BME280;59166;48.908;1.870;2024-01-07T10:21:07;100802.66;;;4.02;100.00
71361;BME280;59166;48.908;1.870;2024-01-07T10:26:09;100801.00;;;4.01;100.00
71361;BME280;59166;48.908;1.870;2024-01-07T10:31:10;100808.41;;;3.99;100.00
71361;BME280;59166;48.908;1.870;2024-01-07T10:36:11;100796.06;;;3.98;100.00
71361;BME280;59166;48.908;1.870;2024-01-07T10:41:14;100807.19;;;3.95;100.00
71361;BME280;59166;48.908;1.870;2024-01-07T10:46:18;100803.06;;;4.06;100.00
71361;BME280;59166;48.908;1.870;2024-01-07T10:51:20;100801.63;;;4.23;100.00
71361;BME280;59166;48.908;1.870;2024-01-07T10:56:23;100801.03;;;4.14;100.00
71361;BME280;59166;48.908;1.870;2024-01-07T11:01:24;100804.72;;;4.27;100.00
71361;BME280;59166;48.908;1.870;2024-01-07T11:06:36;100798.53;;;4.26;100.00
71361;BME280;59166;48.908;1.870;2024-01-07T11:11:41;100796.50;;;4.28;100.00
71361;BME280;59166;48.908;1.870;2024-01-07T11:16:42;100798.75;;;4.31;100.00
71361;BME280;59166;48.908;1.870;2024-01-07T11:21:43;100794.84;;;4.20;100.00
71361;BME280;59166;48.908;1.870;2024-01-07T11:26:45;100793.81;;;4.22;100.00
71361;BME280;59166;48.908;1.870;2024-01-07T11:31:46;100799.38;;;4.27;100.00
71361;BME280;59166;48.908;1.870;2024-01-07T11:36:47;100797.69;;;4.32;100.00
71361;BME280;59166;48.908;1.870;2024-01-07T11:41:49;100794.84;;;4.27;100.00
71361;BME280;59166;48.908;1.870;2024-01-07T11:46:50;100803.69;;;4.28;100.00
71361;BME280;59166;48.908;1.870;2024-01-07T11:51:51;100801.63;;;4.30;100.00
71361;BME280;59166;48.908;1.870;2024-01-07T11:56:53;100796.09;;;4.25;100.00
71361;BME280;59166;48.908;1.870;2024-01-07T12:01:54;100800.38;;;4.26;100.00
71361;BME280;59166;48.908;1.870;2024-01-07T12:06:55;100801.84;;;4.22;100.00
71361;BME280;59166;48.908;1.870;2024-01-07T12:11:57;100790.94;;;4.16;100.00
71361;BME280;59166;48.908;1.870;2024-01-07T12:16:58;100806.38;;;4.21;100.00
71361;BME280;59166;48.908;1.870;2024-01-07T12:22:02;100792.38;;;4.19;100.00
71361;BME280;59166;48.908;1.870;2024-01-07T12:27:07;100789.28;;;4.22;100.00
71361;BME280;59166;48.908;1.870;2024-01-07T12:32:08;100795.44;;;4.36;100.00
71361;BME280;59166;48.908;1.870;2024-01-07T12:37:13;100795.25;;;4.31;100.00
71361;BME280;59166;48.908;1.870;2024-01-07T12:42:15;100801.03;;;4.28;100.00
71361;BME280;59166;48.908;1.870;2024-01-07T12:47:16;100809.03;;;4.41;100.00
71361;BME280;59166;48.908;1.870;2024-01-07T12:52:16;100798.13;;;4.36;100.00
71361;BME280;59166;48.908;1.870;2024-01-07T12:57:18;100796.06;;;4.31;100.00
71361;BME280;59166;48.908;1.870;2024-01-07T13:02:19;100800.19;;;4.20;100.00
71361;BME280;59166;48.908;1.870;2024-01-07T13:07:20;100793.00;;;4.34;100.00
71361;BME280;59166;48.908;1.870;2024-01-07T13:12:22;100802.66;;;4.42;100.00
71361;BME280;59166;48.908;1.870;2024-01-07T13:17:23;100796.47;;;4.48;100.00
71361;BME280;59166;48.908;1.870;2024-01-07T13:22:23;100799.13;;;4.48;100.00
71361;BME280;59166;48.908;1.870;2024-01-07T13:27:25;100807.34;;;4.46;100.00
71361;BME280;59166;48.908;1.870;2024-01-07T13:32:26;100794.38;;;4.50;100.00
71361;BME280;59166;48.908;1.870;2024-01-07T13:37:26;100788.84;;;4.58;100.00
71361;BME280;59166;48.908;1.870;2024-01-07T13:42:28;100801.56;;;4.62;100.00
71361;BME280;59166;48.908;1.870;2024-01-07T13:47:29;100807.78;;;4.43;100.00
71361;BME280;59166;48.908;1.870;2024-01-07T13:52:30;100810.88;;;4.47;100.00
71361;BME280;59166;48.908;1.870;2024-01-07T13:57:32;100812.50;;;4.48;100.00
71361;BME280;59166;48.908;1.870;2024-01-07T14:02:32;100823.25;;;4.28;100.00
71361;BME280;59166;48.908;1.870;2024-01-07T14:07:33;100827.94;;;4.26;100.00
71361;BME280;59166;48.908;1.870;2024-01-07T14:12:35;100825.09;;;4.28;100.00
71361;BME280;59166;48.908;1.870;2024-01-07T14:17:36;100835.38;;;4.24;100.00
71361;BME280;59166;48.908;1.870;2024-01-07T14:22:36;100840.72;;;4.24;100.00
71361;BME280;59166;48.908;1.870;2024-01-07T14:27:38;100835.16;;;4.26;100.00
71361;BME280;59166;48.908;1.870;2024-01-07T14:32:39;100854.28;;;4.42;100.00
71361;BME280;59166;48.908;1.870;2024-01-07T14:37:40;100853.06;;;4.32;100.00
71361;BME280;59166;48.908;1.870;2024-01-07T14:42:42;100852.84;;;4.27;100.00
71361;BME280;59166;48.908;1.870;2024-01-07T14:47:42;100848.31;;;4.34;100.00
71361;BME280;59166;48.908;1.870;2024-01-07T14:52:43;100850.38;;;4.32;100.00
71361;BME280;59166;48.908;1.870;2024-01-07T14:57:45;100859.84;;;4.28;100.00
71361;BME280;59166;48.908;1.870;2024-01-07T15:02:45;100863.34;;;4.22;100.00
71361;BME280;59166;48.908;1.870;2024-01-07T15:07:46;100865.38;;;4.13;100.00
71361;BME280;59166;48.908;1.870;2024-01-07T15:12:48;100870.53;;;4.14;100.00
71361;BME280;59166;48.908;1.870;2024-01-07T15:17:49;100868.88;;;4.13;100.00
71361;BME280;59166;48.908;1.870;2024-01-07T15:22:49;100886.19;;;4.24;100.00
71361;BME280;59166;48.908;1.870;2024-01-07T15:27:51;100883.69;;;4.22;100.00
71361;BME280;59166;48.908;1.870;2024-01-07T15:32:52;100887.38;;;4.15;100.00
71361;BME280;59166;48.908;1.870;2024-01-07T15:37:52;100903.66;;;4.13;100.00
71361;BME280;59166;48.908;1.870;2024-01-07T15:42:55;100896.88;;;4.17;100.00
71361;BME280;59166;48.908;1.870;2024-01-07T15:47:55;100901.16;;;4.18;100.00
71361;BME280;59166;48.908;1.870;2024-01-07T15:52:56;100908.56;;;4.16;100.00
71361;BME280;59166;48.908;1.870;2024-01-07T15:57:58;100915.34;;;4.06;100.00
71361;BME280;59166;48.908;1.870;2024-01-07T16:02:58;100920.09;;;4.04;100.00
71361;BME280;59166;48.908;1.870;2024-01-07T16:07:59;100929.50;;;3.93;100.00
71361;BME280;59166;48.908;1.870;2024-01-07T16:13:01;100931.94;;;3.88;100.00
71361;BME280;59166;48.908;1.870;2024-01-07T16:18:02;100933.63;;;3.96;100.00
71361;BME280;59166;48.908;1.870;2024-01-07T16:23:03;100932.16;;;3.80;100.00
71361;BME280;59166;48.908;1.870;2024-01-07T16:28:05;100936.66;;;3.73;100.00
71361;BME280;59166;48.908;1.870;2024-01-07T16:33:05;100942.41;;;3.77;100.00
71361;BME280;59166;48.908;1.870;2024-01-07T16:38:06;100941.19;;;3.86;100.00
71361;BME280;59166;48.908;1.870;2024-01-07T16:43:08;100940.72;;;3.69;100.00
71361;BME280;59166;48.908;1.870;2024-01-07T16:48:08;100938.31;;;3.74;100.00
71361;BME280;59166;48.908;1.870;2024-01-07T16:53:09;100934.16;;;3.72;100.00
71361;BME280;59166;48.908;1.870;2024-01-07T16:58:11;100936.63;;;3.66;100.00
71361;BME280;59166;48.908;1.870;2024-01-07T17:03:12;100946.94;;;3.76;100.00
71361;BME280;59166;48.908;1.870;2024-01-07T17:08:12;100934.16;;;3.72;100.00
71361;BME280;59166;48.908;1.870;2024-01-07T17:13:14;100953.69;;;3.72;100.00
71361;BME280;59166;48.908;1.870;2024-01-07T17:18:15;100950.59;;;3.68;100.00
71361;BME280;59166;48.908;1.870;2024-01-07T17:23:16;100955.16;;;3.81;100.00
71361;BME280;59166;48.908;1.870;2024-01-07T17:28:18;100960.31;;;3.83;100.00
71361;BME280;59166;48.908;1.870;2024-01-07T17:33:18;100953.53;;;3.80;100.00
71361;BME280;59166;48.908;1.870;2024-01-07T17:38:19;100971.00;;;3.83;100.00
71361;BME280;59166;48.908;1.870;2024-01-07T17:43:21;100971.81;;;3.77;100.00
71361;BME280;59166;48.908;1.870;2024-01-07T17:48:22;100987.38;;;3.66;100.00
71361;BME280;59166;48.908;1.870;2024-01-07T17:53:22;100977.72;;;3.72;100.00
71361;BME280;59166;48.908;1.870;2024-01-07T17:58:24;100992.28;;;3.63;100.00
71361;BME280;59166;48.908;1.870;2024-01-07T18:03:25;100988.97;;;3.61;100.00
71361;BME280;59166;48.908;1.870;2024-01-07T18:08:25;100990.56;;;3.49;100.00
71361;BME280;59166;48.908;1.870;2024-01-07T18:13:27;100992.19;;;3.43;100.00
71361;BME280;59166;48.908;1.870;2024-01-07T18:18:28;100992.81;;;3.45;100.00
71361;BME280;59166;48.908;1.870;2024-01-07T18:23:28;101004.31;;;3.46;100.00
71361;BME280;59166;48.908;1.870;2024-01-07T18:28:32;101006.38;;;3.44;100.00
71361;BME280;59166;48.908;1.870;2024-01-07T18:33:32;101014.63;;;3.49;100.00
71361;BME280;59166;48.908;1.870;2024-01-07T18:38:33;101023.19;;;3.44;100.00
71361;BME280;59166;48.908;1.870;2024-01-07T18:43:35;101027.81;;;3.57;100.00
71361;BME280;59166;48.908;1.870;2024-01-07T18:48:35;101027.56;;;3.52;100.00
71361;BME280;59166;48.908;1.870;2024-01-07T18:53:37;101027.50;;;3.39;100.00
71361;BME280;59166;48.908;1.870;2024-01-07T18:58:39;101042.47;;;3.33;100.00
71361;BME280;59166;48.908;1.870;2024-01-07T19:03:39;101034.94;;;3.15;100.00
71361;BME280;59166;48.908;1.870;2024-01-07T19:08:40;101061.25;;;3.18;100.00
71361;BME280;59166;48.908;1.870;2024-01-07T19:13:42;101047.59;;;3.07;100.00
71361;BME280;59166;48.908;1.870;2024-01-07T19:18:42;101055.59;;;3.07;100.00
71361;BME280;59166;48.908;1.870;2024-01-07T19:23:43;101052.75;;;3.08;100.00
71361;BME280;59166;48.908;1.870;2024-01-07T19:28:45;101057.19;;;3.01;100.00
71361;BME280;59166;48.908;1.870;2024-01-07T19:33:45;101055.53;;;3.00;100.00
71361;BME280;59166;48.908;1.870;2024-01-07T19:38:46;101062.75;;;3.00;100.00
71361;BME280;59166;48.908;1.870;2024-01-07T19:43:48;101069.22;;;2.91;100.00
71361;BME280;59166;48.908;1.870;2024-01-07T19:48:49;101073.22;;;3.01;100.00
71361;BME280;59166;48.908;1.870;2024-01-07T19:53:51;101069.16;;;2.84;100.00
71361;BME280;59166;48.908;1.870;2024-01-07T19:58:53;101071.19;;;2.82;100.00
71361;BME280;59166;48.908;1.870;2024-01-07T20:03:54;101070.44;;;2.88;100.00
71361;BME280;59166;48.908;1.870;2024-01-07T20:08:55;101069.53;;;2.81;100.00
71361;BME280;59166;48.908;1.870;2024-01-07T20:13:57;101080.47;;;2.65;100.00
71361;BME280;59166;48.908;1.870;2024-01-07T20:18:58;101082.03;;;2.59;100.00
71361;BME280;59166;48.908;1.870;2024-01-07T20:23:58;101088.19;;;2.60;100.00
71361;BME280;59166;48.908;1.870;2024-01-07T20:29:00;101094.88;;;2.71;100.00
71361;BME280;59166;48.908;1.870;2024-01-07T20:34:01;101090.31;;;2.64;100.00
71361;BME280;59166;48.908;1.870;2024-01-07T20:39:02;101099.75;;;2.67;100.00
71361;BME280;59166;48.908;1.870;2024-01-07T20:44:04;101101.41;;;2.68;100.00
71361;BME280;59166;48.908;1.870;2024-01-07T20:49:04;101098.13;;;2.66;100.00
71361;BME280;59166;48.908;1.870;2024-01-07T20:54:05;101092.13;;;2.64;100.00
71361;BME280;59166;48.908;1.870;2024-01-07T20:59:07;101095.09;;;2.69;100.00
71361;BME280;59166;48.908;1.870;2024-01-07T21:04:08;101098.25;;;2.58;100.00
71361;BME280;59166;48.908;1.870;2024-01-07T21:09:08;101101.66;;;2.52;100.00
71361;BME280;59166;48.908;1.870;2024-01-07T21:14:10;101107.91;;;2.59;100.00
71361;BME280;59166;48.908;1.870;2024-01-07T21:19:11;101105.78;;;2.54;100.00
71361;BME280;59166;48.908;1.870;2024-01-07T21:24:11;101104.13;;;2.53;100.00
71361;BME280;59166;48.908;1.870;2024-01-07T21:29:13;101104.72;;;2.49;100.00
71361;BME280;59166;48.908;1.870;2024-01-07T21:34:14;101116.00;;;2.51;100.00
71361;BME280;59166;48.908;1.870;2024-01-07T21:39:15;101123.16;;;2.50;100.00
71361;BME280;59166;48.908;1.870;2024-01-07T21:44:17;101123.75;;;2.46;100.00
71361;BME280;59166;48.908;1.870;2024-01-07T21:49:17;101121.09;;;2.31;100.00
71361;BME280;59166;48.908;1.870;2024-01-07T21:54:18;101118.47;;;2.17;100.00
71361;BME280;59166;48.908;1.870;2024-01-07T21:59:20;101131.06;;;2.08;100.00
71361;BME280;59166;48.908;1.870;2024-01-07T22:04:20;101136.31;;;1.87;100.00
71361;BME280;59166;48.908;1.870;2024-01-07T22:09:21;101149.78;;;1.85;100.00
71361;BME280;59166;48.908;1.870;2024-01-07T22:14:23;101168.34;;;1.79;100.00
71361;BME280;59166;48.908;1.870;2024-01-07T22:19:24;101170.38;;;1.77;100.00
71361;BME280;59166;48.908;1.870;2024-01-07T22:24:24;101171.09;;;1.71;100.00
71361;BME280;59166;48.908;1.870;2024-01-07T22:29:26;101169.81;;;1.67;100.00
71361;BME280;59166;48.908;1.870;2024-01-07T22:34:27;101175.19;;;1.44;100.00
71361;BME280;59166;48.908;1.870;2024-01-07T22:39:27;101165.47;;;1.28;95.95
71361;BME280;59166;48.908;1.870;2024-01-07T22:44:29;101181.34;;;1.22;95.84
71361;BME280;59166;48.908;1.870;2024-01-07T22:49:30;101175.38;;;1.20;98.98
71361;BME280;59166;48.908;1.870;2024-01-07T22:54:31;101182.28;;;1.06;97.98
71361;BME280;59166;48.908;1.870;2024-01-07T22:59:33;101177.44;;;1.09;97.41
71361;BME280;59166;48.908;1.870;2024-01-07T23:04:33;101184.06;;;1.14;97.14
71361;BME280;59166;48.908;1.870;2024-01-07T23:09:34;101182.28;;;1.29;97.62
71361;BME280;59166;48.908;1.870;2024-01-07T23:14:36;101195.59;;;1.06;95.30
71361;BME280;59166;48.908;1.870;2024-01-07T23:19:36;101196.00;;;1.18;96.32
71361;BME280;59166;48.908;1.870;2024-01-07T23:24:37;101204.22;;;1.08;94.82
71361;BME280;59166;48.908;1.870;2024-01-07T23:29:39;101204.56;;;1.05;93.49
71361;BME280;59166;48.908;1.870;2024-01-07T23:34:40;101197.66;;;0.96;93.65
71361;BME280;59166;48.908;1.870;2024-01-07T23:39:41;101197.78;;;1.02;92.42
71361;BME280;59166;48.908;1.870;2024-01-07T23:44:43;101189.56;;;0.89;95.90
71361;BME280;59166;48.908;1.870;2024-01-07T23:49:43;101200.00;;;0.91;94.40
71361;BME280;59166;48.908;1.870;2024-01-07T23:54:44;101191.84;;;0.92;94.57
71361;BME280;59166;48.908;1.870;2024-01-07T23:59:46;101213.16;;;0.84;97.78
